sensor_id;sensor_type;location;lat;lon;timestamp;P1;durP1;ratioP1;P2;durP2;ratioP2
3817;SDS011;1924;48.078;11.516;2022-09-03T00:01:52;30.70;;;0.80;;
3817;SDS011;1924;48.078;11.516;2022-09-03T00:04:28;30.60;;;0.80;;
3817;SDS011;1924;48.078;11.516;2022-09-03T04:00:20;30.80;;;0.80;;
3817;SDS011;1924;48.078;11.516;2022-09-03T04:02:46;30.80;;;0.80;;
3817;SDS011;1924;48.078;11.516;2022-09-03T04:05:13;30.80;;;0.80;;
3817;SDS011;1924;48.078;11.516;2022-09-03T04:07:40;30.70;;;0.80;;
3817;SDS011;1924;48.078;11.516;2022-09-03T04:10:08;30.80;;;0.80;;
3817;SDS011;1924;48.078;11.516;2022-09-03T04:12:35;31.00;;;0.80;;
3817;SDS011;1924;48.078;11.516;2022-09-03T04:15:02;30.60;;;0.80;;
3817;SDS011;1924;48.078;11.516;2022-09-03T04:17:30;30.63;;;0.80;;
3817;SDS011;1924;48.078;11.516;2022-09-03T04:19:57;30.80;;;0.80;;
3817;SDS011;1924;48.078;11.516;2022-09-03T04:22:23;30.80;;;0.80;;
3817;SDS011;1924;48.078;11.516;2022-09-03T04:24:50;30.87;;;0.80;;
3817;SDS011;1924;48.078;11.516;2022-09-03T04:27:17;30.80;;;0.80;;
3817;SDS011;1924;48.078;11.516;2022-09-03T04:29:43;30.70;;;0.80;;
3817;SDS011;1924;48.078;11.516;2022-09-03T04:32:10;30.77;;;0.80;;
3817;SDS011;1924;48.078;11.516;2022-09-03T04:34:57;30.70;;;0.80;;
3817;SDS011;1924;48.078;11.516;2022-09-03T04:37:24;30.70;;;0.80;;
3817;SDS011;1924;48.078;11.516;2022-09-03T04:39:50;30.70;;;0.80;;
3817;SDS011;1924;48.078;11.516;2022-09-03T04:42:18;30.80;;;0.80;;
3817;SDS011;1924;48.078;11.516;2022-09-03T04:44:44;30.70;;;0.80;;
3817;SDS011;1924;48.078;11.516;2022-09-03T04:47:11;30.70;;;0.80;;
3817;SDS011;1924;48.078;11.516;2022-09-03T04:49:39;30.90;;;0.80;;
3817;SDS011;1924;48.078;11.516;2022-09-03T04:52:07;30.80;;;0.80;;
3817;SDS011;1924;48.078;11.516;2022-09-03T04:54:34;30.70;;;0.80;;
3817;SDS011;1924;48.078;11.516;2022-09-03T04:57:00;30.80;;;0.80;;
3817;SDS011;1924;48.078;11.516;2022-09-03T04:59:27;30.67;;;0.80;;
3817;SDS011;1924;48.078;11.516;2022-09-03T05:01:54;30.70;;;0.80;;
3817;SDS011;1924;48.078;11.516;2022-09-03T05:04:21;30.80;;;0.80;;
3817;SDS011;1924;48.078;11.516;2022-09-03T05:06:47;30.60;;;0.80;;
3817;SDS011;1924;48.078;11.516;2022-09-03T05:09:15;30.77;;;0.80;;
3817;SDS011;1924;48.078;11.516;2022-09-03T05:11:42;30.80;;;0.80;;
3817;SDS011;1924;48.078;11.516;2022-09-03T05:14:09;30.60;;;0.80;;
3817;SDS011;1924;48.078;11.516;2022-09-03T05:16:36;30.70;;;0.80;;
3817;SDS011;1924;48.078;11.516;2022-09-03T05:19:03;30.70;;;0.80;;
3817;SDS011;1924;48.078;11.516;2022-09-03T05:21:32;30.70;;;0.80;;
3817;SDS011;1924;48.078;11.516;2022-09-03T05:24:01;30.60;;;0.80;;
3817;SDS011;1924;48.078;11.516;2022-09-03T05:26:31;30.97;;;0.90;;
3817;SDS011;1924;48.078;11.516;2022-09-03T05:28:59;30.70;;;0.80;;
3817;SDS011;1924;48.078;11.516;2022-09-03T05:31:28;30.60;;;0.80;;
3817;SDS011;1924;48.078;11.516;2022-09-03T05:33:57;30.70;;;0.80;;
3817;SDS011;1924;48.078;11.516;2022-09-03T05:36:26;30.57;;;0.80;;
3817;SDS011;1924;48.078;11.516;2022-09-03T05:38:54;30.57;;;0.80;;
3817;SDS011;1924;48.078;11.516;2022-09-03T05:41:21;30.60;;;0.80;;
3817;SDS011;1924;48.078;11.516;2022-09-03T05:43:50;30.80;;;0.80;;
3817;SDS011;1924;48.078;11.516;2022-09-03T05:46:20;30.63;;;0.80;;
3817;SDS011;1924;48.078;11.516;2022-09-03T05:48:54;30.77;;;0.80;;
3817;SDS011;1924;48.078;11.516;2022-09-03T05:51:20;30.60;;;0.80;;
3817;SDS011;1924;48.078;11.516;2022-09-03T05:53:47;30.70;;;0.80;;
3817;SDS011;1924;48.078;11.516;2022-09-03T05:56:15;30.60;;;0.80;;
3817;SDS011;1924;48.078;11.516;2022-09-03T05:58:43;30.80;;;0.80;;
3817;SDS011;1924;48.078;11.516;2022-09-03T06:01:13;30.80;;;0.80;;
3817;SDS011;1924;48.078;11.516;2022-09-03T06:03:41;30.63;;;0.80;;
3817;SDS011;1924;48.078;11.516;2022-09-03T06:06:09;30.70;;;0.80;;
3817;SDS011;1924;48.078;11.516;2022-09-03T06:08:38;30.63;;;0.80;;
3817;SDS011;1924;48.078;11.516;2022-09-03T06:11:05;30.77;;;0.80;;
3817;SDS011;1924;48.078;11.516;2022-09-03T06:13:34;30.80;;;0.80;;
3817;SDS011;1924;48.078;11.516;2022-09-03T06:16:02;30.80;;;0.80;;
3817;SDS011;1924;48.078;11.516;2022-09-03T06:18:32;30.90;;;0.80;;
3817;SDS011;1924;48.078;11.516;2022-09-03T06:20:59;30.83;;;0.80;;
3817;SDS011;1924;48.078;11.516;2022-09-03T06:23:27;30.83;;;0.80;;
3817;SDS011;1924;48.078;11.516;2022-09-03T06:25:59;30.80;;;0.80;;
3817;SDS011;1924;48.078;11.516;2022-09-03T06:28:26;30.90;;;0.80;;
3817;SDS011;1924;48.078;11.516;2022-09-03T06:30:56;30.80;;;0.80;;
3817;SDS011;1924;48.078;11.516;2022-09-03T06:33:23;30.90;;;0.80;;
3817;SDS011;1924;48.078;11.516;2022-09-03T06:35:54;30.73;;;0.80;;
3817;SDS011;1924;48.078;11.516;2022-09-03T06:38:24;30.87;;;0.80;;
3817;SDS011;1924;48.078;11.516;2022-09-03T06:40:53;30.90;;;0.80;;
3817;SDS011;1924;48.078;11.516;2022-09-03T06:43:20;30.90;;;0.80;;
3817;SDS011;1924;48.078;11.516;2022-09-03T06:45:52;31.00;;;0.80;;
3817;SDS011;1924;48.078;11.516;2022-09-03T06:48:19;30.90;;;0.80;;
3817;SDS011;1924;48.078;11.516;2022-09-03T06:50:53;30.90;;;0.80;;
3817;SDS011;1924;48.078;11.516;2022-09-03T06:53:21;30.90;;;0.80;;
3817;SDS011;1924;48.078;11.516;2022-09-03T06:55:52;30.90;;;0.80;;
3817;SDS011;1924;48.078;11.516;2022-09-03T06:58:19;30.90;;;0.80;;
3817;SDS011;1924;48.078;11.516;2022-09-03T07:00:47;30.80;;;0.80;;
3817;SDS011;1924;48.078;11.516;2022-09-03T07:03:16;30.90;;;0.80;;
3817;SDS011;1924;48.078;11.516;2022-09-03T07:05:43;30.80;;;0.80;;
3817;SDS011;1924;48.078;11.516;2022-09-03T07:08:11;30.97;;;0.80;;
3817;SDS011;1924;48.078;11.516;2022-09-03T07:10:37;30.80;;;0.80;;
3817;SDS011;1924;48.078;11.516;2022-09-03T07:13:04;30.77;;;0.80;;
3817;SDS011;1924;48.078;11.516;2022-09-03T07:15:31;31.00;;;0.80;;
3817;SDS011;1924;48.078;11.516;2022-09-03T07:17:58;31.00;;;0.80;;
3817;SDS011;1924;48.078;11.516;2022-09-03T07:20:28;30.93;;;0.80;;
3817;SDS011;1924;48.078;11.516;2022-09-03T07:22:55;30.90;;;0.80;;
3817;SDS011;1924;48.078;11.516;2022-09-03T07:25:25;30.90;;;0.80;;
3817;SDS011;1924;48.078;11.516;2022-09-03T07:27:52;30.93;;;0.80;;
3817;SDS011;1924;48.078;11.516;2022-09-03T07:30:19;31.10;;;0.80;;
3817;SDS011;1924;48.078;11.516;2022-09-03T07:32:46;31.20;;;0.80;;
3817;SDS011;1924;48.078;11.516;2022-09-03T07:35:15;31.30;;;0.80;;
3817;SDS011;1924;48.078;11.516;2022-09-03T07:37:43;31.27;;;0.80;;
3817;SDS011;1924;48.078;11.516;2022-09-03T07:40:10;31.40;;;0.80;;
3817;SDS011;1924;48.078;11.516;2022-09-03T07:42:39;31.30;;;0.80;;
3817;SDS011;1924;48.078;11.516;2022-09-03T07:45:06;31.30;;;0.80;;
3817;SDS011;1924;48.078;11.516;2022-09-03T07:47:34;31.17;;;0.80;;
3817;SDS011;1924;48.078;11.516;2022-09-03T07:50:02;31.27;;;0.80;;
3817;SDS011;1924;48.078;11.516;2022-09-03T07:52:29;31.30;;;0.80;;
3817;SDS011;1924;48.078;11.516;2022-09-03T07:54:57;31.37;;;0.80;;
3817;SDS011;1924;48.078;11.516;2022-09-03T07:57:24;31.50;;;0.80;;
3817;SDS011;1924;48.078;11.516;2022-09-03T07:59:52;31.50;;;0.80;;
3817;SDS011;1924;48.078;11.516;2022-09-03T08:02:19;31.57;;;0.80;;
3817;SDS011;1924;48.078;11.516;2022-09-03T08:04:47;31.60;;;0.80;;
3817;SDS011;1924;48.078;11.516;2022-09-03T08:07:13;31.50;;;0.80;;
3817;SDS011;1924;48.078;11.516;2022-09-03T08:09:40;31.53;;;0.80;;
3817;SDS011;1924;48.078;11.516;2022-09-03T08:12:07;31.73;;;0.80;;
3817;SDS011;1924;48.078;11.516;2022-09-03T08:14:33;31.70;;;0.80;;
3817;SDS011;1924;48.078;11.516;2022-09-03T08:17:02;31.70;;;0.80;;
3817;SDS011;1924;48.078;11.516;2022-09-03T08:19:28;31.60;;;0.80;;
3817;SDS011;1924;48.078;11.516;2022-09-03T08:21:55;31.70;;;0.80;;
3817;SDS011;1924;48.078;11.516;2022-09-03T08:24:22;31.70;;;0.80;;
3817;SDS011;1924;48.078;11.516;2022-09-03T08:26:50;31.80;;;0.80;;
3817;SDS011;1924;48.078;11.516;2022-09-03T08:29:17;31.70;;;0.80;;
3817;SDS011;1924;48.078;11.516;2022-09-03T08:31:44;31.73;;;0.80;;
3817;SDS011;1924;48.078;11.516;2022-09-03T08:34:12;31.90;;;0.80;;
3817;SDS011;1924;48.078;11.516;2022-09-03T08:36:41;32.10;;;0.80;;
3817;SDS011;1924;48.078;11.516;2022-09-03T08:39:09;32.10;;;0.80;;
3817;SDS011;1924;48.078;11.516;2022-09-03T08:41:40;32.17;;;0.80;;
3817;SDS011;1924;48.078;11.516;2022-09-03T08:44:28;32.10;;;0.80;;
3817;SDS011;1924;48.078;11.516;2022-09-03T08:46:59;32.20;;;0.80;;
3817;SDS011;1924;48.078;11.516;2022-09-03T08:49:33;32.27;;;0.80;;
3817;SDS011;1924;48.078;11.516;2022-09-03T08:52:18;32.33;;;0.80;;
3817;SDS011;1924;48.078;11.516;2022-09-03T08:54:50;32.27;;;0.80;;
3817;SDS011;1924;48.078;11.516;2022-09-03T08:57:21;32.40;;;0.80;;
3817;SDS011;1924;48.078;11.516;2022-09-03T08:59:50;32.40;;;0.80;;
3817;SDS011;1924;48.078;11.516;2022-09-03T09:02:21;32.37;;;0.80;;
3817;SDS011;1924;48.078;11.516;2022-09-03T09:05:01;32.17;;;0.80;;
3817;SDS011;1924;48.078;11.516;2022-09-03T09:07:36;32.47;;;0.80;;
3817;SDS011;1924;48.078;11.516;2022-09-03T09:10:11;32.57;;;0.80;;
3817;SDS011;1924;48.078;11.516;2022-09-03T09:12:44;32.50;;;0.80;;
3817;SDS011;1924;48.078;11.516;2022-09-03T09:15:18;32.50;;;0.80;;
3817;SDS011;1924;48.078;11.516;2022-09-03T09:17:58;32.27;;;0.80;;
3817;SDS011;1924;48.078;11.516;2022-09-03T09:20:34;32.60;;;0.80;;
3817;SDS011;1924;48.078;11.516;2022-09-03T09:23:07;32.43;;;0.80;;
3817;SDS011;1924;48.078;11.516;2022-09-03T09:25:39;32.60;;;0.80;;
3817;SDS011;1924;48.078;11.516;2022-09-03T09:28:15;32.47;;;0.80;;
3817;SDS011;1924;48.078;11.516;2022-09-03T09:30:44;32.53;;;0.80;;
3817;SDS011;1924;48.078;11.516;2022-09-03T09:33:13;32.50;;;0.80;;
3817;SDS011;1924;48.078;11.516;2022-09-03T09:35:41;32.70;;;0.80;;
3817;SDS011;1924;48.078;11.516;2022-09-03T09:38:08;32.60;;;0.80;;
3817;SDS011;1924;48.078;11.516;2022-09-03T09:40:37;32.73;;;0.80;;
3817;SDS011;1924;48.078;11.516;2022-09-03T09:43:06;32.80;;;0.80;;
3817;SDS011;1924;48.078;11.516;2022-09-03T09:45:39;32.53;;;0.80;;
3817;SDS011;1924;48.078;11.516;2022-09-03T09:48:08;32.67;;;0.80;;
3817;SDS011;1924;48.078;11.516;2022-09-03T09:50:41;32.47;;;0.80;;
3817;SDS011;1924;48.078;11.516;2022-09-03T09:53:09;32.53;;;0.80;;
3817;SDS011;1924;48.078;11.516;2022-09-03T09:55:49;32.40;;;0.80;;
3817;SDS011;1924;48.078;11.516;2022-09-03T09:58:18;32.40;;;0.80;;
3817;SDS011;1924;48.078;11.516;2022-09-03T10:00:57;32.43;;;0.80;;
3817;SDS011;1924;48.078;11.516;2022-09-03T10:03:30;32.33;;;0.80;;
3817;SDS011;1924;48.078;11.516;2022-09-03T10:06:04;32.20;;;0.80;;
3817;SDS011;1924;48.078;11.516;2022-09-03T10:08:50;32.13;;;0.80;;
3817;SDS011;1924;48.078;11.516;2022-09-03T10:11:18;32.27;;;0.80;;
3817;SDS011;1924;48.078;11.516;2022-09-03T10:13:49;32.40;;;0.80;;
3817;SDS011;1924;48.078;11.516;2022-09-03T10:16:19;32.20;;;0.80;;
3817;SDS011;1924;48.078;11.516;2022-09-03T10:18:53;32.20;;;0.80;;
3817;SDS011;1924;48.078;11.516;2022-09-03T10:21:31;32.20;;;0.80;;
3817;SDS011;1924;48.078;11.516;2022-09-03T10:24:12;32.30;;;0.80;;
3817;SDS011;1924;48.078;11.516;2022-09-03T10:26:48;32.27;;;0.80;;
3817;SDS011;1924;48.078;11.516;2022-09-03T10:29:16;32.40;;;0.80;;
3817;SDS011;1924;48.078;11.516;2022-09-03T10:31:51;32.17;;;0.80;;
3817;SDS011;1924;48.078;11.516;2022-09-03T10:34:28;32.13;;;0.80;;
3817;SDS011;1924;48.078;11.516;2022-09-03T10:37:04;32.37;;;0.80;;
3817;SDS011;1924;48.078;11.516;2022-09-03T10:39:45;32.30;;;0.80;;
3817;SDS011;1924;48.078;11.516;2022-09-03T10:42:27;32.30;;;0.80;;
3817;SDS011;1924;48.078;11.516;2022-09-03T10:45:02;32.27;;;0.80;;
3817;SDS011;1924;48.078;11.516;2022-09-03T10:50:50;32.60;;;0.80;;
3817;SDS011;1924;48.078;11.516;2022-09-03T10:53:26;32.60;;;0.80;;
3817;SDS011;1924;48.078;11.516;2022-09-03T10:56:04;32.60;;;0.80;;
3817;SDS011;1924;48.078;11.516;2022-09-03T10:58:39;32.60;;;0.80;;
3817;SDS011;1924;48.078;11.516;2022-09-03T11:01:21;32.53;;;0.80;;
3817;SDS011;1924;48.078;11.516;2022-09-03T11:03:55;32.53;;;0.80;;
3817;SDS011;1924;48.078;11.516;2022-09-03T11:06:39;32.27;;;0.80;;
3817;SDS011;1924;48.078;11.516;2022-09-03T11:09:12;32.17;;;0.80;;
3817;SDS011;1924;48.078;11.516;2022-09-03T11:11:44;32.30;;;0.80;;
3817;SDS011;1924;48.078;11.516;2022-09-03T11:14:17;32.30;;;0.80;;
3817;SDS011;1924;48.078;11.516;2022-09-03T11:16:53;32.10;;;0.80;;
3817;SDS011;1924;48.078;11.516;2022-09-03T11:19:26;32.10;;;0.80;;
3817;SDS011;1924;48.078;11.516;2022-09-03T11:21:59;32.00;;;0.80;;
3817;SDS011;1924;48.078;11.516;2022-09-03T11:24:28;31.90;;;0.80;;
3817;SDS011;1924;48.078;11.516;2022-09-03T11:27:00;32.00;;;0.80;;
3817;SDS011;1924;48.078;11.516;2022-09-03T11:29:32;31.87;;;0.80;;
3817;SDS011;1924;48.078;11.516;2022-09-03T11:32:15;31.70;;;0.80;;
3817;SDS011;1924;48.078;11.516;2022-09-03T11:34:46;31.50;;;0.80;;
3817;SDS011;1924;48.078;11.516;2022-09-03T11:37:15;31.60;;;0.80;;
3817;SDS011;1924;48.078;11.516;2022-09-03T11:39:51;31.60;;;0.80;;
3817;SDS011;1924;48.078;11.516;2022-09-03T11:42:25;31.33;;;0.80;;
3817;SDS011;1924;48.078;11.516;2022-09-03T11:44:58;31.17;;;0.80;;
3817;SDS011;1924;48.078;11.516;2022-09-03T11:47:37;31.67;;;0.80;;
3817;SDS011;1924;48.078;11.516;2022-09-03T11:50:08;31.60;;;0.80;;
3817;SDS011;1924;48.078;11.516;2022-09-03T11:52:45;31.80;;;0.80;;
3817;SDS011;1924;48.078;11.516;2022-09-03T11:55:24;31.77;;;0.80;;
3817;SDS011;1924;48.078;11.516;2022-09-03T11:57:56;31.90;;;0.80;;
3817;SDS011;1924;48.078;11.516;2022-09-03T12:00:23;31.80;;;0.80;;
3817;SDS011;1924;48.078;11.516;2022-09-03T12:02:51;32.03;;;0.80;;
3817;SDS011;1924;48.078;11.516;2022-09-03T12:05:23;32.13;;;0.80;;
3817;SDS011;1924;48.078;11.516;2022-09-03T12:08:16;32.10;;;0.80;;
3817;SDS011;1924;48.078;11.516;2022-09-03T12:11:11;32.03;;;0.80;;
3817;SDS011;1924;48.078;11.516;2022-09-03T12:13:53;32.00;;;0.80;;
3817;SDS011;1924;48.078;11.516;2022-09-03T12:16:36;32.10;;;0.80;;
3817;SDS011;1924;48.078;11.516;2022-09-03T12:19:20;32.20;;;0.80;;
3817;SDS011;1924;48.078;11.516;2022-09-03T12:21:54;32.03;;;0.80;;
3817;SDS011;1924;48.078;11.516;2022-09-03T12:24:21;32.17;;;0.80;;
3817;SDS011;1924;48.078;11.516;2022-09-03T12:27:00;32.10;;;0.80;;
3817;SDS011;1924;48.078;11.516;2022-09-03T12:29:28;32.27;;;0.80;;
3817;SDS011;1924;48.078;11.516;2022-09-03T12:32:04;32.27;;;0.80;;
3817;SDS011;1924;48.078;11.516;2022-09-03T12:34:32;32.30;;;0.80;;
3817;SDS011;1924;48.078;11.516;2022-09-03T12:36:58;32.33;;;0.80;;
3817;SDS011;1924;48.078;11.516;2022-09-03T12:39:25;32.47;;;0.80;;
3817;SDS011;1924;48.078;11.516;2022-09-03T12:41:58;32.47;;;0.80;;
3817;SDS011;1924;48.078;11.516;2022-09-03T12:44:29;32.57;;;0.80;;
3817;SDS011;1924;48.078;11.516;2022-09-03T12:47:03;32.47;;;0.80;;
3817;SDS011;1924;48.078;11.516;2022-09-03T12:49:35;32.77;;;0.80;;
3817;SDS011;1924;48.078;11.516;2022-09-03T12:52:04;32.77;;;0.80;;
3817;SDS011;1924;48.078;11.516;2022-09-03T12:54:37;32.77;;;0.80;;
3817;SDS011;1924;48.078;11.516;2022-09-03T12:57:10;32.60;;;0.80;;
3817;SDS011;1924;48.078;11.516;2022-09-03T12:59:41;32.63;;;0.80;;
3817;SDS011;1924;48.078;11.516;2022-09-03T13:02:11;32.57;;;0.80;;
3817;SDS011;1924;48.078;11.516;2022-09-03T13:04:42;32.77;;;0.80;;
3817;SDS011;1924;48.078;11.516;2022-09-03T13:07:12;32.63;;;0.80;;
3817;SDS011;1924;48.078;11.516;2022-09-03T13:09:47;32.67;;;0.80;;
3817;SDS011;1924;48.078;11.516;2022-09-03T13:12:27;32.50;;;0.80;;
3817;SDS011;1924;48.078;11.516;2022-09-03T13:14:55;32.53;;;0.80;;
3817;SDS011;1924;48.078;11.516;2022-09-03T13:17:28;32.60;;;0.80;;
3817;SDS011;1924;48.078;11.516;2022-09-03T13:20:10;32.60;;;0.80;;
3817;SDS011;1924;48.078;11.516;2022-09-03T13:22:49;32.67;;;0.80;;
3817;SDS011;1924;48.078;11.516;2022-09-03T13:25:28;32.60;;;0.80;;
3817;SDS011;1924;48.078;11.516;2022-09-03T13:28:02;32.60;;;0.80;;
3817;SDS011;1924;48.078;11.516;2022-09-03T13:30:37;32.67;;;0.80;;
3817;SDS011;1924;48.078;11.516;2022-09-03T13:33:15;32.63;;;0.80;;
3817;SDS011;1924;48.078;11.516;2022-09-03T13:35:46;32.70;;;0.80;;
3817;SDS011;1924;48.078;11.516;2022-09-03T13:38:20;32.60;;;0.80;;
3817;SDS011;1924;48.078;11.516;2022-09-03T13:40:55;32.53;;;0.80;;
3817;SDS011;1924;48.078;11.516;2022-09-03T13:43:29;32.87;;;0.80;;
3817;SDS011;1924;48.078;11.516;2022-09-03T13:46:05;32.80;;;0.80;;
3817;SDS011;1924;48.078;11.516;2022-09-03T13:48:33;33.07;;;0.80;;
3817;SDS011;1924;48.078;11.516;2022-09-03T13:51:21;32.97;;;0.80;;
3817;SDS011;1924;48.078;11.516;2022-09-03T13:53:56;32.90;;;0.80;;
3817;SDS011;1924;48.078;11.516;2022-09-03T13:56:33;32.97;;;0.80;;
3817;SDS011;1924;48.078;11.516;2022-09-03T13:59:12;33.10;;;0.80;;
3817;SDS011;1924;48.078;11.516;2022-09-03T14:01:54;32.87;;;0.80;;
3817;SDS011;1924;48.078;11.516;2022-09-03T14:04:28;33.17;;;0.80;;
3817;SDS011;1924;48.078;11.516;2022-09-03T14:07:07;33.13;;;0.80;;
3817;SDS011;1924;48.078;11.516;2022-09-03T14:09:40;33.20;;;0.80;;
3817;SDS011;1924;48.078;11.516;2022-09-03T14:12:13;33.03;;;0.80;;
3817;SDS011;1924;48.078;11.516;2022-09-03T14:14:48;33.10;;;0.80;;
3817;SDS011;1924;48.078;11.516;2022-09-03T14:17:23;33.17;;;0.80;;
3817;SDS011;1924;48.078;11.516;2022-09-03T14:19:58;33.20;;;0.80;;
3817;SDS011;1924;48.078;11.516;2022-09-03T14:22:30;33.13;;;0.80;;
3817;SDS011;1924;48.078;11.516;2022-09-03T14:25:10;32.87;;;0.80;;
3817;SDS011;1924;48.078;11.516;2022-09-03T14:27:40;32.93;;;0.80;;
3817;SDS011;1924;48.078;11.516;2022-09-03T14:30:17;32.57;;;0.80;;
3817;SDS011;1924;48.078;11.516;2022-09-03T14:32:51;32.87;;;0.80;;
3817;SDS011;1924;48.078;11.516;2022-09-03T14:35:30;32.60;;;0.80;;
3817;SDS011;1924;48.078;11.516;2022-09-03T14:38:17;31.97;;;0.80;;
3817;SDS011;1924;48.078;11.516;2022-09-03T14:41:21;31.80;;;0.80;;
3817;SDS011;1924;48.078;11.516;2022-09-03T14:44:20;31.77;;;0.80;;
3817;SDS011;1924;48.078;11.516;2022-09-03T14:47:02;31.77;;;0.80;;
3817;SDS011;1924;48.078;11.516;2022-09-03T14:55:56;31.97;;;0.80;;
3817;SDS011;1924;48.078;11.516;2022-09-03T14:58:37;31.80;;;0.80;;
3817;SDS011;1924;48.078;11.516;2022-09-03T15:01:12;32.00;;;0.80;;
3817;SDS011;1924;48.078;11.516;2022-09-03T15:07:11;32.10;;;0.80;;
3817;SDS011;1924;48.078;11.516;2022-09-03T15:09:44;32.07;;;0.80;;
3817;SDS011;1924;48.078;11.516;2022-09-03T15:12:21;32.10;;;0.80;;
3817;SDS011;1924;48.078;11.516;2022-09-03T15:14:54;32.10;;;0.80;;
3817;SDS011;1924;48.078;11.516;2022-09-03T15:17:29;32.17;;;0.80;;
3817;SDS011;1924;48.078;11.516;2022-09-03T15:20:10;32.30;;;0.80;;
3817;SDS011;1924;48.078;11.516;2022-09-03T15:23:01;32.33;;;0.80;;
3817;SDS011;1924;48.078;11.516;2022-09-03T15:25:40;32.40;;;0.80;;
3817;SDS011;1924;48.078;11.516;2022-09-03T15:28:18;32.47;;;0.80;;
3817;SDS011;1924;48.078;11.516;2022-09-03T15:30:58;32.60;;;0.80;;
3817;SDS011;1924;48.078;11.516;2022-09-03T15:33:32;32.63;;;0.80;;
3817;SDS011;1924;48.078;11.516;2022-09-03T15:36:09;32.47;;;0.80;;
3817;SDS011;1924;48.078;11.516;2022-09-03T15:38:46;32.60;;;0.80;;
3817;SDS011;1924;48.078;11.516;2022-09-03T15:44:06;32.30;;;0.80;;
3817;SDS011;1924;48.078;11.516;2022-09-03T15:46:39;32.30;;;0.80;;
3817;SDS011;1924;48.078;11.516;2022-09-03T15:49:19;32.47;;;0.80;;
3817;SDS011;1924;48.078;11.516;2022-09-03T15:52:02;32.50;;;0.80;;
3817;SDS011;1924;48.078;11.516;2022-09-03T15:54:40;32.37;;;0.80;;
3817;SDS011;1924;48.078;11.516;2022-09-03T15:57:12;32.37;;;0.80;;
3817;SDS011;1924;48.078;11.516;2022-09-03T15:59:47;32.33;;;0.80;;
3817;SDS011;1924;48.078;11.516;2022-09-03T16:02:20;32.37;;;0.80;;
3817;SDS011;1924;48.078;11.516;2022-09-03T16:04:55;32.30;;;0.80;;
3817;SDS011;1924;48.078;11.516;2022-09-03T16:07:38;32.40;;;0.80;;
3817;SDS011;1924;48.078;11.516;2022-09-03T16:10:16;32.23;;;0.80;;
3817;SDS011;1924;48.078;11.516;2022-09-03T16:12:46;32.27;;;0.80;;
3817;SDS011;1924;48.078;11.516;2022-09-03T16:15:21;32.30;;;0.80;;
3817;SDS011;1924;48.078;11.516;2022-09-03T16:17:53;32.30;;;0.80;;
3817;SDS011;1924;48.078;11.516;2022-09-03T16:20:26;32.30;;;0.80;;
3817;SDS011;1924;48.078;11.516;2022-09-03T16:23:01;32.40;;;0.80;;
3817;SDS011;1924;48.078;11.516;2022-09-03T16:25:44;32.50;;;0.80;;
3817;SDS011;1924;48.078;11.516;2022-09-03T16:28:15;32.60;;;0.80;;
3817;SDS011;1924;48.078;11.516;2022-09-03T16:30:51;32.50;;;0.80;;
3817;SDS011;1924;48.078;11.516;2022-09-03T16:33:30;32.60;;;0.80;;
3817;SDS011;1924;48.078;11.516;2022-09-03T16:36:05;32.40;;;0.80;;
3817;SDS011;1924;48.078;11.516;2022-09-03T16:38:51;32.60;;;0.80;;
3817;SDS011;1924;48.078;11.516;2022-09-03T16:41:27;32.70;;;0.80;;
3817;SDS011;1924;48.078;11.516;2022-09-03T16:44:00;32.50;;;0.80;;
3817;SDS011;1924;48.078;11.516;2022-09-03T16:46:34;32.70;;;0.80;;
3817;SDS011;1924;48.078;11.516;2022-09-03T16:52:02;32.70;;;0.80;;
3817;SDS011;1924;48.078;11.516;2022-09-03T16:54:39;32.70;;;0.80;;
3817;SDS011;1924;48.078;11.516;2022-09-03T16:57:20;32.80;;;0.80;;
3817;SDS011;1924;48.078;11.516;2022-09-03T17:00:00;32.70;;;0.80;;
3817;SDS011;1924;48.078;11.516;2022-09-03T17:05:37;33.00;;;0.80;;
3817;SDS011;1924;48.078;11.516;2022-09-03T17:08:23;32.80;;;0.80;;
3817;SDS011;1924;48.078;11.516;2022-09-03T17:11:00;32.90;;;0.80;;
3817;SDS011;1924;48.078;11.516;2022-09-03T17:13:44;32.80;;;0.80;;
3817;SDS011;1924;48.078;11.516;2022-09-03T17:16:24;32.87;;;0.80;;
3817;SDS011;1924;48.078;11.516;2022-09-03T17:19:04;32.87;;;0.80;;
3817;SDS011;1924;48.078;11.516;2022-09-03T17:21:38;32.93;;;0.80;;
3817;SDS011;1924;48.078;11.516;2022-09-03T17:24:20;33.00;;;0.80;;
3817;SDS011;1924;48.078;11.516;2022-09-03T17:27:00;32.87;;;0.80;;
3817;SDS011;1924;48.078;11.516;2022-09-03T17:29:43;33.00;;;0.80;;
3817;SDS011;1924;48.078;11.516;2022-09-03T17:32:21;33.00;;;0.80;;
3817;SDS011;1924;48.078;11.516;2022-09-03T17:34:59;32.87;;;0.80;;
3817;SDS011;1924;48.078;11.516;2022-09-03T17:37:38;32.90;;;0.80;;
3817;SDS011;1924;48.078;11.516;2022-09-03T17:43:06;32.97;;;0.80;;
3817;SDS011;1924;48.078;11.516;2022-09-03T17:45:47;33.20;;;0.80;;
3817;SDS011;1924;48.078;11.516;2022-09-03T17:48:28;32.87;;;0.80;;
3817;SDS011;1924;48.078;11.516;2022-09-03T17:51:14;32.80;;;0.80;;
3817;SDS011;1924;48.078;11.516;2022-09-03T17:53:52;33.00;;;0.80;;
3817;SDS011;1924;48.078;11.516;2022-09-03T17:56:23;33.00;;;0.80;;
3817;SDS011;1924;48.078;11.516;2022-09-03T17:58:54;32.80;;;0.80;;
3817;SDS011;1924;48.078;11.516;2022-09-03T18:01:32;33.10;;;0.80;;
3817;SDS011;1924;48.078;11.516;2022-09-03T18:04:10;33.00;;;0.80;;
3817;SDS011;1924;48.078;11.516;2022-09-03T18:06:44;32.93;;;0.80;;
3817;SDS011;1924;48.078;11.516;2022-09-03T18:09:21;32.80;;;0.80;;
3817;SDS011;1924;48.078;11.516;2022-09-03T18:11:56;33.00;;;0.80;;
3817;SDS011;1924;48.078;11.516;2022-09-03T18:14:32;32.97;;;0.80;;
3817;SDS011;1924;48.078;11.516;2022-09-03T18:17:07;32.73;;;0.80;;
3817;SDS011;1924;48.078;11.516;2022-09-03T18:19:41;33.00;;;0.80;;
3817;SDS011;1924;48.078;11.516;2022-09-03T18:22:30;32.90;;;0.80;;
3817;SDS011;1924;48.078;11.516;2022-09-03T18:25:19;32.90;;;0.80;;
3817;SDS011;1924;48.078;11.516;2022-09-03T18:28:08;32.80;;;0.80;;
3817;SDS011;1924;48.078;11.516;2022-09-03T18:30:56;33.00;;;0.80;;
3817;SDS011;1924;48.078;11.516;2022-09-03T18:33:42;32.87;;;0.80;;
3817;SDS011;1924;48.078;11.516;2022-09-03T18:36:27;32.77;;;0.80;;
3817;SDS011;1924;48.078;11.516;2022-09-03T18:39:14;32.93;;;0.80;;
3817;SDS011;1924;48.078;11.516;2022-09-03T18:42:11;32.90;;;0.80;;
3817;SDS011;1924;48.078;11.516;2022-09-03T18:45:05;32.90;;;0.80;;
3817;SDS011;1924;48.078;11.516;2022-09-03T18:47:59;32.70;;;0.80;;
3817;SDS011;1924;48.078;11.516;2022-09-03T18:50:52;33.00;;;0.80;;
3817;SDS011;1924;48.078;11.516;2022-09-03T18:53:44;32.87;;;0.80;;
3817;SDS011;1924;48.078;11.516;2022-09-03T18:56:38;32.80;;;0.80;;
3817;SDS011;1924;48.078;11.516;2022-09-03T18:59:31;32.97;;;0.80;;
3817;SDS011;1924;48.078;11.516;2022-09-03T19:02:32;32.87;;;0.80;;
3817;SDS011;1924;48.078;11.516;2022-09-03T19:05:29;32.90;;;0.80;;
3817;SDS011;1924;48.078;11.516;2022-09-03T19:08:21;32.90;;;0.80;;
3817;SDS011;1924;48.078;11.516;2022-09-03T19:11:10;32.97;;;0.80;;
3817;SDS011;1924;48.078;11.516;2022-09-03T19:14:11;33.00;;;0.80;;
3817;SDS011;1924;48.078;11.516;2022-09-03T19:17:04;32.90;;;0.80;;
3817;SDS011;1924;48.078;11.516;2022-09-03T19:20:00;32.90;;;0.80;;
3817;SDS011;1924;48.078;11.516;2022-09-03T19:22:47;32.80;;;0.80;;
3817;SDS011;1924;48.078;11.516;2022-09-03T19:25:33;32.90;;;0.80;;
3817;SDS011;1924;48.078;11.516;2022-09-03T19:28:19;32.90;;;0.80;;
3817;SDS011;1924;48.078;11.516;2022-09-03T19:31:12;32.90;;;0.90;;
3817;SDS011;1924;48.078;11.516;2022-09-03T19:34:08;32.90;;;0.80;;
3817;SDS011;1924;48.078;11.516;2022-09-03T19:37:08;32.73;;;0.80;;
3817;SDS011;1924;48.078;11.516;2022-09-03T19:40:00;32.80;;;0.80;;
3817;SDS011;1924;48.078;11.516;2022-09-03T19:42:57;32.77;;;0.80;;
3817;SDS011;1924;48.078;11.516;2022-09-03T19:45:53;32.90;;;0.80;;
3817;SDS011;1924;48.078;11.516;2022-09-03T19:48:46;32.70;;;0.80;;
3817;SDS011;1924;48.078;11.516;2022-09-03T19:51:42;32.73;;;0.80;;